sensor_id;sensor_type;location;lat;lon;timestamp;temperature;humidity
8114;DHT22;4099;52.684;9.918;2023-01-24T00:04:27;2.20;99.90
8114;DHT22;4099;52.684;9.918;2023-01-24T00:09:30;2.30;99.90
8114;DHT22;4099;52.684;9.918;2023-01-24T00:14:32;2.20;99.90
8114;DHT22;4099;52.684;9.918;2023-01-24T00:19:34;2.30;99.90
8114;DHT22;4099;52.684;9.918;2023-01-24T00:24:37;2.20;99.90
8114;DHT22;4099;52.684;9.918;2023-01-24T00:29:39;2.10;99.90
8114;DHT22;4099;52.684;9.918;2023-01-24T00:34:40;2.10;99.90
8114;DHT22;4099;52.684;9.918;2023-01-24T00:39:43;2.30;99.90
8114;DHT22;4099;52.684;9.918;2023-01-24T00:44:46;2.30;99.90
8114;DHT22;4099;52.684;9.918;2023-01-24T00:49:48;2.30;99.90
8114;DHT22;4099;52.684;9.918;2023-01-24T00:54:51;2.20;99.90
8114;DHT22;4099;52.684;9.918;2023-01-24T00:59:53;2.00;99.90
8114;DHT22;4099;52.684;9.918;2023-01-24T01:04:54;2.10;99.90
8114;DHT22;4099;52.684;9.918;2023-01-24T01:09:57;2.00;99.90
8114;DHT22;4099;52.684;9.918;2023-01-24T01:14:59;1.90;99.90
8114;DHT22;4099;52.684;9.918;2023-01-24T01:20:01;1.90;99.90
8114;DHT22;4099;52.684;9.918;2023-01-24T01:25:05;2.20;99.90
8114;DHT22;4099;52.684;9.918;2023-01-24T01:30:08;2.00;99.90
8114;DHT22;4099;52.684;9.918;2023-01-24T01:35:10;2.10;99.90
8114;DHT22;4099;52.684;9.918;2023-01-24T01:40:14;2.10;99.90
8114;DHT22;4099;52.684;9.918;2023-01-24T01:45:35;2.30;99.90
8114;DHT22;4099;52.684;9.918;2023-01-24T01:50:40;2.30;99.90
8114;DHT22;4099;52.684;9.918;2023-01-24T01:55:48;2.30;99.90
8114;DHT22;4099;52.684;9.918;2023-01-24T02:00:51;2.30;99.90
8114;DHT22;4099;52.684;9.918;2023-01-24T02:05:53;2.20;99.90
8114;DHT22;4099;52.684;9.918;2023-01-24T02:10:57;1.90;99.90
8114;DHT22;4099;52.684;9.918;2023-01-24T02:16:17;1.80;99.90
8114;DHT22;4099;52.684;9.918;2023-01-24T02:21:20;2.00;99.90
8114;DHT22;4099;52.684;9.918;2023-01-24T02:26:24;2.00;99.90
8114;DHT22;4099;52.684;9.918;2023-01-24T02:31:26;1.80;99.90
8114;DHT22;4099;52.684;9.918;2023-01-24T02:36:32;2.10;99.90
8114;DHT22;4099;52.684;9.918;2023-01-24T02:41:41;2.10;99.90
8114;DHT22;4099;52.684;9.918;2023-01-24T02:46:45;2.30;99.90
8114;DHT22;4099;52.684;9.918;2023-01-24T02:51:47;2.20;99.90
8114;DHT22;4099;52.684;9.918;2023-01-24T02:57:08;2.20;99.90
8114;DHT22;4099;52.684;9.918;2023-01-24T03:02:27;2.30;99.90
8114;DHT22;4099;52.684;9.918;2023-01-24T03:07:29;2.30;99.90
8114;DHT22;4099;52.684;9.918;2023-01-24T03:12:44;2.10;99.90
8114;DHT22;4099;52.684;9.918;2023-01-24T03:18:04;2.10;99.90
8114;DHT22;4099;52.684;9.918;2023-01-24T03:23:23;2.20;99.90
8114;DHT22;4099;52.684;9.918;2023-01-24T03:28:44;2.20;99.90
8114;DHT22;4099;52.684;9.918;2023-01-24T03:34:04;2.20;99.90
8114;DHT22;4099;52.684;9.918;2023-01-24T03:39:23;2.10;99.90
8114;DHT22;4099;52.684;9.918;2023-01-24T03:44:45;2.20;99.90
8114;DHT22;4099;52.684;9.918;2023-01-24T03:49:47;2.20;99.90
8114;DHT22;4099;52.684;9.918;2023-01-24T03:55:07;2.20;99.90
8114;DHT22;4099;52.684;9.918;2023-01-24T04:00:12;2.10;99.90
8114;DHT22;4099;52.684;9.918;2023-01-24T04:05:17;2.00;99.90
8114;DHT22;4099;52.684;9.918;2023-01-24T04:10:21;2.10;99.90
8114;DHT22;4099;52.684;9.918;2023-01-24T04:15:27;2.10;99.90
8114;DHT22;4099;52.684;9.918;2023-01-24T04:20:48;2.10;99.90
8114;DHT22;4099;52.684;9.918;2023-01-24T04:25:50;2.20;99.90
8114;DHT22;4099;52.684;9.918;2023-01-24T04:30:58;2.00;99.90
8114;DHT22;4099;52.684;9.918;2023-01-24T04:36:15;2.00;99.90
8114;DHT22;4099;52.684;9.918;2023-01-24T04:41:17;1.90;99.90
8114;DHT22;4099;52.684;9.918;2023-01-24T04:46:21;2.00;99.90
8114;DHT22;4099;52.684;9.918;2023-01-24T04:51:30;1.70;99.90
8114;DHT22;4099;52.684;9.918;2023-01-24T04:56:33;1.70;99.90
8114;DHT22;4099;52.684;9.918;2023-01-24T05:01:36;1.90;99.90
8114;DHT22;4099;52.684;9.918;2023-01-24T05:06:46;1.90;99.90
8114;DHT22;4099;52.684;9.918;2023-01-24T05:11:48;1.90;99.90
8114;DHT22;4099;52.684;9.918;2023-01-24T05:16:51;1.90;99.90
8114;DHT22;4099;52.684;9.918;2023-01-24T05:21:53;1.80;99.90
8114;DHT22;4099;52.684;9.918;2023-01-24T05:26:55;1.90;99.90
8114;DHT22;4099;52.684;9.918;2023-01-24T05:32:02;2.00;99.90
8114;DHT22;4099;52.684;9.918;2023-01-24T05:37:04;2.00;99.90
8114;DHT22;4099;52.684;9.918;2023-01-24T05:42:09;1.90;99.90
8114;DHT22;4099;52.684;9.918;2023-01-24T05:47:20;1.90;99.90
8114;DHT22;4099;52.684;9.918;2023-01-24T05:52:23;1.80;99.90
8114;DHT22;4099;52.684;9.918;2023-01-24T05:57:26;1.90;99.90
8114;DHT22;4099;52.684;9.918;2023-01-24T06:02:48;1.90;99.90
8114;DHT22;4099;52.684;9.918;2023-01-24T06:07:51;2.00;99.90
8114;DHT22;4099;52.684;9.918;2023-01-24T06:12:52;2.00;99.90
8114;DHT22;4099;52.684;9.918;2023-01-24T06:17:55;2.00;99.90
8114;DHT22;4099;52.684;9.918;2023-01-24T06:23:02;2.00;99.90
8114;DHT22;4099;52.684;9.918;2023-01-24T06:28:08;1.90;99.90
8114;DHT22;4099;52.684;9.918;2023-01-24T06:33:23;1.90;99.90
8114;DHT22;4099;52.684;9.918;2023-01-24T06:38:27;1.90;99.90
8114;DHT22;4099;52.684;9.918;2023-01-24T06:43:29;1.60;99.90
8114;DHT22;4099;52.684;9.918;2023-01-24T06:48:32;1.70;99.90
8114;DHT22;4099;52.684;9.918;2023-01-24T06:53:34;1.60;99.90
8114;DHT22;4099;52.684;9.918;2023-01-24T06:58:35;1.60;99.90
8114;DHT22;4099;52.684;9.918;2023-01-24T07:03:39;1.70;99.90
8114;DHT22;4099;52.684;9.918;2023-01-24T07:08:40;1.80;99.90
8114;DHT22;4099;52.684;9.918;2023-01-24T07:13:42;2.00;99.90
8114;DHT22;4099;52.684;9.918;2023-01-24T07:18:46;1.80;99.90
8114;DHT22;4099;52.684;9.918;2023-01-24T07:23:49;1.80;99.90
8114;DHT22;4099;52.684;9.918;2023-01-24T07:28:51;1.80;99.90
8114;DHT22;4099;52.684;9.918;2023-01-24T07:33:54;1.80;99.90
8114;DHT22;4099;52.684;9.918;2023-01-24T07:38:56;1.60;99.90
8114;DHT22;4099;52.684;9.918;2023-01-24T07:43:58;1.70;99.90
8114;DHT22;4099;52.684;9.918;2023-01-24T07:49:02;1.80;99.90
8114;DHT22;4099;52.684;9.918;2023-01-24T07:54:04;1.60;99.90
8114;DHT22;4099;52.684;9.918;2023-01-24T07:59:05;1.80;99.90
8114;DHT22;4099;52.684;9.918;2023-01-24T08:04:09;1.80;99.90
8114;DHT22;4099;52.684;9.918;2023-01-24T08:09:11;1.90;99.90
8114;DHT22;4099;52.684;9.918;2023-01-24T08:14:12;1.90;99.90
8114;DHT22;4099;52.684;9.918;2023-01-24T08:19:15;1.90;99.90
8114;DHT22;4099;52.684;9.918;2023-01-24T08:24:17;1.90;99.90
8114;DHT22;4099;52.684;9.918;2023-01-24T08:29:19;1.90;99.90
8114;DHT22;4099;52.684;9.918;2023-01-24T08:34:22;1.70;93.00
8114;DHT22;4099;52.684;9.918;2023-01-24T08:39:23;1.80;99.90
8114;DHT22;4099;52.684;9.918;2023-01-24T08:44:25;1.70;99.90
8114;DHT22;4099;52.684;9.918;2023-01-24T08:49:28;1.90;99.90
8114;DHT22;4099;52.684;9.918;2023-01-24T08:54:30;1.90;99.90
8114;DHT22;4099;52.684;9.918;2023-01-24T08:59:33;1.90;99.90
8114;DHT22;4099;52.684;9.918;2023-01-24T09:04:36;2.00;94.30
8114;DHT22;4099;52.684;9.918;2023-01-24T09:09:38;2.00;95.90
8114;DHT22;4099;52.684;9.918;2023-01-24T09:14:40;2.00;99.90
8114;DHT22;4099;52.684;9.918;2023-01-24T09:19:43;2.10;76.80
8114;DHT22;4099;52.684;9.918;2023-01-24T09:24:45;2.10;62.20
8114;DHT22;4099;52.684;9.918;2023-01-24T09:29:46;2.10;32.20
8114;DHT22;4099;52.684;9.918;2023-01-24T09:34:49;2.00;82.10
8114;DHT22;4099;52.684;9.918;2023-01-24T09:39:51;2.00;99.90
8114;DHT22;4099;52.684;9.918;2023-01-24T09:45:03;2.00;99.90
8114;DHT22;4099;52.684;9.918;2023-01-24T09:50:16;2.00;97.70
8114;DHT22;4099;52.684;9.918;2023-01-24T09:55:22;2.00;99.90
8114;DHT22;4099;52.684;9.918;2023-01-24T10:00:28;2.10;78.10
8114;DHT22;4099;52.684;9.918;2023-01-24T10:05:37;2.10;74.50
8114;DHT22;4099;52.684;9.918;2023-01-24T10:10:44;2.10;80.40
8114;DHT22;4099;52.684;9.918;2023-01-24T10:15:52;2.20;40.60
8114;DHT22;4099;52.684;9.918;2023-01-24T10:26:32;2.00;26.40
8114;DHT22;4099;52.684;9.918;2023-01-24T10:31:38;2.00;91.50
8114;DHT22;4099;52.684;9.918;2023-01-24T10:36:45;2.00;89.00
8114;DHT22;4099;52.684;9.918;2023-01-24T10:41:49;2.10;66.10
8114;DHT22;4099;52.684;9.918;2023-01-24T10:47:15;1.80;54.70
8114;DHT22;4099;52.684;9.918;2023-01-24T10:52:24;2.00;99.90
8114;DHT22;4099;52.684;9.918;2023-01-24T10:57:35;2.20;66.40
8114;DHT22;4099;52.684;9.918;2023-01-24T11:02:38;2.20;28.00
8114;DHT22;4099;52.684;9.918;2023-01-24T11:07:46;2.20;55.10
8114;DHT22;4099;52.684;9.918;2023-01-24T11:12:50;2.20;33.20
8114;DHT22;4099;52.684;9.918;2023-01-24T11:17:55;2.20;52.30
8114;DHT22;4099;52.684;9.918;2023-01-24T11:23:10;2.40;27.80
8114;DHT22;4099;52.684;9.918;2023-01-24T11:28:23;2.20;68.40
8114;DHT22;4099;52.684;9.918;2023-01-24T11:33:38;2.20;82.40
8114;DHT22;4099;52.684;9.918;2023-01-24T11:38:44;2.40;29.70
8114;DHT22;4099;52.684;9.918;2023-01-24T11:49:28;2.30;63.40
8114;DHT22;4099;52.684;9.918;2023-01-24T11:54:44;2.10;69.50
8114;DHT22;4099;52.684;9.918;2023-01-24T11:59:57;2.30;25.60
8114;DHT22;4099;52.684;9.918;2023-01-24T12:05:27;2.20;60.30
8114;DHT22;4099;52.684;9.918;2023-01-24T12:10:42;2.30;36.50
8114;DHT22;4099;52.684;9.918;2023-01-24T12:15:58;2.40;28.90
8114;DHT22;4099;52.684;9.918;2023-01-24T12:21:05;2.40;43.60
8114;DHT22;4099;52.684;9.918;2023-01-24T12:26:14;2.40;58.90
8114;DHT22;4099;52.684;9.918;2023-01-24T12:31:24;2.40;50.50
8114;DHT22;4099;52.684;9.918;2023-01-24T12:36:38;2.30;26.60
8114;DHT22;4099;52.684;9.918;2023-01-24T12:41:47;2.20;20.60
8114;DHT22;4099;52.684;9.918;2023-01-24T12:47:00;2.20;61.80
8114;DHT22;4099;52.684;9.918;2023-01-24T12:52:07;2.10;57.20
8114;DHT22;4099;52.684;9.918;2023-01-24T12:57:19;2.10;59.20
8114;DHT22;4099;52.684;9.918;2023-01-24T13:02:49;2.10;58.30
8114;DHT22;4099;52.684;9.918;2023-01-24T13:08:03;2.10;29.90
8114;DHT22;4099;52.684;9.918;2023-01-24T13:13:15;2.10;30.10
8114;DHT22;4099;52.684;9.918;2023-01-24T13:18:33;2.00;41.00
8114;DHT22;4099;52.684;9.918;2023-01-24T13:24:00;2.00;53.30
8114;DHT22;4099;52.684;9.918;2023-01-24T13:29:17;2.00;55.90
8114;DHT22;4099;52.684;9.918;2023-01-24T13:34:23;2.10;25.20
8114;DHT22;4099;52.684;9.918;2023-01-24T13:39:34;2.00;65.20
8114;DHT22;4099;52.684;9.918;2023-01-24T13:44:37;2.00;77.80
8114;DHT22;4099;52.684;9.918;2023-01-24T13:49:43;2.10;27.00
8114;DHT22;4099;52.684;9.918;2023-01-24T13:54:48;2.10;10.50
8114;DHT22;4099;52.684;9.918;2023-01-24T14:00:16;1.70;50.20
8114;DHT22;4099;52.684;9.918;2023-01-24T14:05:47;1.50;99.90
8114;DHT22;4099;52.684;9.918;2023-01-24T14:10:51;1.50;99.90
8114;DHT22;4099;52.684;9.918;2023-01-24T14:15:55;1.50;99.90
8114;DHT22;4099;52.684;9.918;2023-01-24T14:20:57;1.50;99.90
8114;DHT22;4099;52.684;9.918;2023-01-24T14:26:00;1.50;99.90
8114;DHT22;4099;52.684;9.918;2023-01-24T14:31:16;1.30;99.90
8114;DHT22;4099;52.684;9.918;2023-01-24T14:36:23;1.60;99.90
8114;DHT22;4099;52.684;9.918;2023-01-24T14:41:25;1.70;97.60
8114;DHT22;4099;52.684;9.918;2023-01-24T14:46:28;1.70;80.00
8114;DHT22;4099;52.684;9.918;2023-01-24T14:51:30;1.60;81.90
8114;DHT22;4099;52.684;9.918;2023-01-24T14:56:38;1.60;90.20
8114;DHT22;4099;52.684;9.918;2023-01-24T15:01:41;1.40;99.90
8114;DHT22;4099;52.684;9.918;2023-01-24T15:06:43;1.50;99.90
8114;DHT22;4099;52.684;9.918;2023-01-24T15:11:45;1.50;97.10
8114;DHT22;4099;52.684;9.918;2023-01-24T15:16:51;1.50;99.90
8114;DHT22;4099;52.684;9.918;2023-01-24T15:21:55;1.40;99.90
8114;DHT22;4099;52.684;9.918;2023-01-24T15:26:58;1.50;99.20
8114;DHT22;4099;52.684;9.918;2023-01-24T15:32:02;1.40;99.90
8114;DHT22;4099;52.684;9.918;2023-01-24T15:37:04;1.40;86.40
8114;DHT22;4099;52.684;9.918;2023-01-24T15:42:06;1.40;97.10
8114;DHT22;4099;52.684;9.918;2023-01-24T15:47:34;1.40;80.20
8114;DHT22;4099;52.684;9.918;2023-01-24T15:53:10;1.40;59.80
8114;DHT22;4099;52.684;9.918;2023-01-24T15:58:12;1.30;14.60
8114;DHT22;4099;52.684;9.918;2023-01-24T16:03:15;1.10;24.50
8114;DHT22;4099;52.684;9.918;2023-01-24T16:08:17;1.20;22.30
8114;DHT22;4099;52.684;9.918;2023-01-24T16:13:25;1.30;1.00
8114;DHT22;4099;52.684;9.918;2023-01-24T16:18:31;1.30;8.00
8114;DHT22;4099;52.684;9.918;2023-01-24T16:23:33;1.20;42.00
8114;DHT22;4099;52.684;9.918;2023-01-24T16:28:34;1.00;4.40
8114;DHT22;4099;52.684;9.918;2023-01-24T16:33:37;0.90;50.40
8114;DHT22;4099;52.684;9.918;2023-01-24T16:38:40;1.20;27.50
8114;DHT22;4099;52.684;9.918;2023-01-24T16:43:42;1.20;25.90
8114;DHT22;4099;52.684;9.918;2023-01-24T16:48:46;1.40;1.00
8114;DHT22;4099;52.684;9.918;2023-01-24T16:53:48;1.20;1.00
8114;DHT22;4099;52.684;9.918;2023-01-24T16:58:53;1.10;67.60
8114;DHT22;4099;52.684;9.918;2023-01-24T17:03:56;1.30;43.90
8114;DHT22;4099;52.684;9.918;2023-01-24T17:08:58;1.20;1.00
8114;DHT22;4099;52.684;9.918;2023-01-24T17:14:00;1.30;5.20
8114;DHT22;4099;52.684;9.918;2023-01-24T17:19:03;1.30;1.00
8114;DHT22;4099;52.684;9.918;2023-01-24T17:24:05;1.10;27.10
8114;DHT22;4099;52.684;9.918;2023-01-24T17:29:07;1.10;83.60
8114;DHT22;4099;52.684;9.918;2023-01-24T17:34:10;1.20;1.00
8114;DHT22;4099;52.684;9.918;2023-01-24T17:39:12;1.20;1.00
8114;DHT22;4099;52.684;9.918;2023-01-24T17:44:14;1.30;10.80
8114;DHT22;4099;52.684;9.918;2023-01-24T17:49:18;1.30;38.20
8114;DHT22;4099;52.684;9.918;2023-01-24T17:54:20;1.20;27.50
8114;DHT22;4099;52.684;9.918;2023-01-24T17:59:21;1.20;1.00
8114;DHT22;4099;52.684;9.918;2023-01-24T18:04:25;1.20;47.40
8114;DHT22;4099;52.684;9.918;2023-01-24T18:09:26;1.10;38.40
8114;DHT22;4099;52.684;9.918;2023-01-24T18:14:28;0.80;83.50
8114;DHT22;4099;52.684;9.918;2023-01-24T18:19:31;0.80;75.10
8114;DHT22;4099;52.684;9.918;2023-01-24T18:24:36;0.70;98.00
8114;DHT22;4099;52.684;9.918;2023-01-24T18:29:38;1.00;99.90
8114;DHT22;4099;52.684;9.918;2023-01-24T18:34:41;1.20;96.80
8114;DHT22;4099;52.684;9.918;2023-01-24T18:39:42;1.30;70.60
8114;DHT22;4099;52.684;9.918;2023-01-24T18:44:45;1.20;53.70
8114;DHT22;4099;52.684;9.918;2023-01-24T18:49:48;1.20;9.00
8114;DHT22;4099;52.684;9.918;2023-01-24T18:54:49;1.20;6.70
8114;DHT22;4099;52.684;9.918;2023-01-24T18:59:51;1.30;1.00
8114;DHT22;4099;52.684;9.918;2023-01-24T19:04:54;1.30;1.00
8114;DHT22;4099;52.684;9.918;2023-01-24T19:09:56;1.20;4.60
8114;DHT22;4099;52.684;9.918;2023-01-24T19:14:58;1.00;69.80
8114;DHT22;4099;52.684;9.918;2023-01-24T19:20:01;1.20;18.70
8114;DHT22;4099;52.684;9.918;2023-01-24T19:25:03;1.20;1.00
8114;DHT22;4099;52.684;9.918;2023-01-24T19:30:07;1.20;1.00
8114;DHT22;4099;52.684;9.918;2023-01-24T19:35:10;1.20;1.00
8114;DHT22;4099;52.684;9.918;2023-01-24T19:40:12;1.30;1.00
8114;DHT22;4099;52.684;9.918;2023-01-24T19:45:14;1.10;1.00
8114;DHT22;4099;52.684;9.918;2023-01-24T19:50:18;1.10;1.00
8114;DHT22;4099;52.684;9.918;2023-01-24T19:55:20;1.10;1.00
8114;DHT22;4099;52.684;9.918;2023-01-24T20:13:14;1.20;1.00
8114;DHT22;4099;52.684;9.918;2023-01-24T20:18:19;1.20;1.00
8114;DHT22;4099;52.684;9.918;2023-01-24T20:23:21;1.20;1.00
8114;DHT22;4099;52.684;9.918;2023-01-24T20:28:24;1.20;1.00
8114;DHT22;4099;52.684;9.918;2023-01-24T20:33:26;1.00;1.00
8114;DHT22;4099;52.684;9.918;2023-01-24T20:38:29;1.10;1.00
8114;DHT22;4099;52.684;9.918;2023-01-24T20:43:34;1.10;1.00
8114;DHT22;4099;52.684;9.918;2023-01-24T20:48:36;1.00;1.00
8114;DHT22;4099;52.684;9.918;2023-01-24T20:53:38;1.20;1.00
8114;DHT22;4099;52.684;9.918;2023-01-24T20:58:41;1.00;1.00
8114;DHT22;4099;52.684;9.918;2023-01-24T21:03:43;1.00;1.00
8114;DHT22;4099;52.684;9.918;2023-01-24T21:08:46;1.00;1.00
8114;DHT22;4099;52.684;9.918;2023-01-24T21:13:53;0.90;23.10
8114;DHT22;4099;52.684;9.918;2023-01-24T21:18:58;1.10;20.20
8114;DHT22;4099;52.684;9.918;2023-01-24T21:24:03;1.20;1.00
8114;DHT22;4099;52.684;9.918;2023-01-24T21:29:10;1.30;1.00
8114;DHT22;4099;52.684;9.918;2023-01-24T21:34:12;1.20;1.00
8114;DHT22;4099;52.684;9.918;2023-01-24T21:39:14;1.40;1.00
8114;DHT22;4099;52.684;9.918;2023-01-24T21:44:17;1.30;1.00
8114;DHT22;4099;52.684;9.918;2023-01-24T21:49:20;1.30;1.00
8114;DHT22;4099;52.684;9.918;2023-01-24T21:54:23;1.20;1.00
8114;DHT22;4099;52.684;9.918;2023-01-24T21:59:28;1.20;1.00
8114;DHT22;4099;52.684;9.918;2023-01-24T22:04:32;1.20;1.00
8114;DHT22;4099;52.684;9.918;2023-01-24T22:09:34;1.30;1.00
8114;DHT22;4099;52.684;9.918;2023-01-24T22:14:38;1.10;13.30
8114;DHT22;4099;52.684;9.918;2023-01-24T22:19:42;1.10;23.30
8114;DHT22;4099;52.684;9.918;2023-01-24T22:24:57;1.00;1.00
8114;DHT22;4099;52.684;9.918;2023-01-24T22:30:03;1.10;22.30
8114;DHT22;4099;52.684;9.918;2023-01-24T22:35:07;1.10;1.00
8114;DHT22;4099;52.684;9.918;2023-01-24T22:40:15;1.10;13.30
8114;DHT22;4099;52.684;9.918;2023-01-24T22:45:19;1.00;29.60
8114;DHT22;4099;52.684;9.918;2023-01-24T22:50:21;1.30;1.00
8114;DHT22;4099;52.684;9.918;2023-01-24T22:55:23;1.20;1.00
8114;DHT22;4099;52.684;9.918;2023-01-24T23:00:26;1.10;1.00
8114;DHT22;4099;52.684;9.918;2023-01-24T23:05:28;1.00;1.00
8114;DHT22;4099;52.684;9.918;2023-01-24T23:10:29;0.90;1.00
8114;DHT22;4099;52.684;9.918;2023-01-24T23:15:36;1.00;1.00
8114;DHT22;4099;52.684;9.918;2023-01-24T23:20:55;0.90;1.00
8114;DHT22;4099;52.684;9.918;2023-01-24T23:26:14;0.90;1.00
8114;DHT22;4099;52.684;9.918;2023-01-24T23:31:21;0.80;1.00
8114;DHT22;4099;52.684;9.918;2023-01-24T23:36:23;0.80;1.00
8114;DHT22;4099;52.684;9.918;2023-01-24T23:41:24;0.70;1.00
8114;DHT22;4099;52.684;9.918;2023-01-24T23:46:27;0.80;1.00
8114;DHT22;4099;52.684;9.918;2023-01-24T23:51:29;0.80;1.00
8114;DHT22;4099;52.684;9.918;2023-01-24T23:56:31;0.70;1.00
